State Line, Indiana
Current Conditions -  °F | °C
As of 4:15 PM on Tuesday 21 Oct 2014 (Local Time) from KDNV Reporting Station
Overcast Overcast  
Wind Chill: 54°   Ceiling: 3900
Heat Index: 54°   Visibility: 10mi
Dew Point: 42°   Wind: 15mph
Humidity: 65%   Direction: 10°N
Pressure: 30.12"   Gusts: 20mph
Location:  40.19°N, 87.52°W
Report Text: KDNV 212015Z AUTO 01013G17KT 10SM BKN039 OVC047 12/06 A3012 RMK AO2 T01210058
Loading
Personal Weather Stations






























Interactive Weather Map
Tropical Storm Tracking
New forecast layout! Learn more

10-Day Weather Forecast

Advertisements
Track Severe Weather on mobile